Porto Di Livorno — IFPU2 — position and weather

sailwx.info

Track history (hours):
 
Tides and Currents Weather Stations Pressure Air Temp Water Temp Dewpoint Dewpoint Depression Visibility Wind Speed Wind Dir Waves Ship Positions

Porto Di Livorno

Last reported at 2016-Jul-26 15:33 UTC. Time now 2016-Jul-27 01:16 UTC.
Position N 43°34' E 010°18'.

Length 24 m; draft 6.1 m.

Type: Tug. MMSI: 247194299.

Date/timePositionNaut miles runAvg speedWind from/ knotsBaromVisibWave heightAir tempDewpointWater temp
2016-Jul-26 15:33N 43°34' E 010°18'0 0.0
2016-Jul-26 14:33N 43°34' E 010°18'0 0.0
2016-Jul-26 13:34N 43°34' E 010°18'1 0.7
2016-Jul-26 12:33N 43°34' E 010°18'1 0.7
2016-Jul-26 11:33N 43°34' E 010°18'1 0.5
2016-Jul-26 10:34N 43°34' E 010°18'0 0.4
2016-Jul-26 09:33N 43°34' E 010°18'0 0.0
2016-Jul-26 08:33N 43°34' E 010°18'0 0.0
2016-Jul-26 07:33N 43°34' E 010°18'0 0.0
2016-Jul-26 06:33N 43°34' E 010°18'0 0.4
2016-Jul-26 05:33N 43°33' E 010°18'0 0.4
2016-Jul-26 04:33N 43°33' E 010°18'1 0.7
2016-Jul-26 03:33N 43°34' E 010°18'0 0.2
2016-Jul-26 02:33N 43°34' E 010°18'0 0.0
2016-Jul-26 01:33N 43°34' E 010°18'0 0.0
2016-Jul-26 00:33N 43°34' E 010°18'0 0.0
2016-Jul-25 23:33N 43°34' E 010°18'0 0.0
2016-Jul-25 22:33N 43°34' E 010°18'0 0.0
2016-Jul-25 21:33N 43°34' E 010°18'1 1.0
2016-Jul-25 20:33N 43°33' E 010°17'0 0.3
2016-Jul-25 19:33N 43°33' E 010°18'2 1.6
2016-Jul-25 18:33N 43°34' E 010°18'2 1.8
2016-Jul-25 17:33N 43°32' E 010°17'1 1.4
2016-Jul-25 16:33N 43°34' E 010°18'0 0.0
2016-Jul-25 06:32N 43°34' E 010°18'0 0.0
2016-Jul-24 15:33N 43°34' E 010°18'0 0.0
2016-Jul-24 14:33N 43°34' E 010°18'0 0.4
2016-Jul-24 13:33N 43°34' E 010°18'0 0.4
2016-Jul-24 12:33N 43°34' E 010°18'0 0.0
2016-Jul-24 11:33N 43°34' E 010°18'0 0.2
2016-Jul-24 10:33N 43°34' E 010°18'1 0.9
2016-Jul-24 09:34N 43°35' E 010°18'2 2.5
2016-Jul-24 08:33N 43°32' E 010°17'2 1.7
2016-Jul-24 07:33N 43°34' E 010°18'0 0.2
2016-Jul-24 06:34N 43°34' E 010°18'1 1.1
2016-Jul-24 05:33N 43°35' E 010°19'1 1.2
2016-Jul-24 04:33N 43°34' E 010°18'0 0.0
2016-Jul-23 03:33N 43°34' E 010°18'0 0.0
2016-Jul-23 02:33N 43°34' E 010°18'0 0.0
2016-Jul-23 01:33N 43°34' E 010°18'0 0.0
2016-Jul-23 00:33N 43°34' E 010°18'0 0.0
2016-Jul-22 17:33N 43°34' E 010°18'0 0.0
2016-Jul-22 16:34N 43°34' E 010°18'0 0.0
2016-Jul-22 15:33N 43°34' E 010°18'0 0.0
2016-Jul-22 14:33N 43°34' E 010°18'1 1.2
2016-Jul-22 13:33N 43°35' E 010°19'2 2.2
2016-Jul-22 12:33N 43°33' E 010°17'1 0.8
2016-Jul-22 11:33N 43°34' E 010°18'1 1.2
2016-Jul-22 10:33N 43°35' E 010°18'1 1.0
2016-Jul-22 09:33N 43°34' E 010°18'0 0.0
2016-Jul-22 08:33N 43°34' E 010°18'0 0.0
2016-Jul-22 07:33N 43°34' E 010°18'0 0.0
2016-Jul-22 05:33N 43°34' E 010°18'0 0.0
2016-Jul-22 04:33N 43°34' E 010°18'0 0.0
2016-Jul-22 03:33N 43°34' E 010°18'0 0.0
2016-Jul-22 02:33N 43°34' E 010°18'0 0.0
2016-Jul-22 01:33N 43°34' E 010°18'0 0.0
2016-Jul-22 00:33N 43°34' E 010°18'0 0.0
2016-Jul-21 23:33N 43°34' E 010°18'0 0.0
2016-Jul-21 22:33N 43°34' E 010°18'0 0.0
2016-Jul-21 21:33N 43°34' E 010°18'1 0.9
2016-Jul-21 20:33N 43°35' E 010°18'2 2.4
2016-Jul-21 19:33N 43°32' E 010°17'1 1.4
2016-Jul-21 18:33N 43°34' E 010°18'0 0.0
2016-Jul-21 17:33N 43°34' E 010°18'1 1.4
2016-Jul-21 16:33N 43°35' E 010°19'1 1.4
2016-Jul-21 15:33N 43°34' E 010°18'0 0.0
2016-Jul-21 14:33N 43°34' E 010°18'0 0.0
2016-Jul-21 13:33N 43°34' E 010°18'0 0.0
2016-Jul-21 12:33N 43°34' E 010°18'0 0.0
2016-Jul-21 11:33N 43°34' E 010°18'1 1.3
2016-Jul-21 10:33N 43°35' E 010°19'1 1.3
2016-Jul-21 09:33N 43°34' E 010°18'0 0.0
2016-Jul-21 08:33N 43°34' E 010°18'1 1.4
2016-Jul-21 07:33N 43°32' E 010°17'1 1.4
2016-Jul-21 06:33N 43°34' E 010°18'1 1.3
2016-Jul-21 05:33N 43°35' E 010°19'1 1.3
2016-Jul-21 04:33N 43°34' E 010°18'0 0.0
2016-Jul-21 03:33N 43°34' E 010°18'0 0.0
2016-Jul-21 02:33N 43°34' E 010°18'0 0.0
2016-Jul-21 01:34N 43°34' E 010°18'0 0.0
2016-Jul-21 00:33N 43°34' E 010°18'0 0.0
2016-Jul-20 23:33N 43°34' E 010°18'0 0.2
2016-Jul-20 22:33N 43°34' E 010°18'2 1.6
2016-Jul-20 21:33N 43°32' E 010°17'2 2.0
2016-Jul-20 20:33N 43°34' E 010°18'1 0.6
2016-Jul-20 19:33N 43°34' E 010°18'0 0.4
2016-Jul-20 18:33N 43°34' E 010°18'0 0.5
2016-Jul-20 17:33N 43°34' E 010°18'0 0.3
2016-Jul-20 16:33N 43°34' E 010°19'2 1.9
2016-Jul-20 15:33N 43°33' E 010°17'1 1.2
2016-Jul-20 14:33N 43°34' E 010°18'0 0.0
2016-Jul-20 13:33N 43°34' E 010°18'0 0.0
2016-Jul-20 12:33N 43°34' E 010°18'0 0.0
2016-Jul-20 11:33N 43°34' E 010°18'0 0.0
2016-Jul-20 10:33N 43°34' E 010°18'0 0.0
2016-Jul-20 09:34N 43°34' E 010°18'1 1.3
2016-Jul-20 08:33N 43°35' E 010°19'1 1.3
2016-Jul-20 07:33N 43°34' E 010°18'1 1.1
2016-Jul-20 06:34N 43°35' E 010°18'1 1.0
2016-Jul-20 05:33N 43°34' E 010°18'1 1.2
2016-Jul-20 04:33N 43°35' E 010°19'1 0.1
2016-Jul-19 06:24N 43°34' E 010°18'0 0.0
2016-Jul-19 04:25N 43°34' E 010°18'0 0.2
2016-Jul-19 03:33N 43°34' E 010°18'0 0.1
2016-Jul-19 02:33N 43°34' E 010°18'0 0.0
2016-Jul-19 01:33N 43°34' E 010°18'0 0.0
2016-Jul-19 00:33N 43°34' E 010°18'0 0.0
2016-Jul-18 23:33N 43°34' E 010°18'0 0.0
2016-Jul-18 22:33N 43°34' E 010°18'0 0.0
2016-Jul-18 21:33N 43°34' E 010°18'0 0.0
2016-Jul-18 20:33N 43°34' E 010°18'0 0.0
2016-Jul-18 19:33N 43°34' E 010°18'0 0.0
2016-Jul-18 18:33N 43°34' E 010°18'1 0.6
2016-Jul-18 17:33N 43°34' E 010°18'1 1.2
2016-Jul-18 16:33N 43°33' E 010°18'1 0.2
2016-Jul-18 13:33N 43°34' E 010°18'1 0.8
2016-Jul-18 12:33N 43°33' E 010°18'1 0.8
2016-Jul-18 11:33N 43°34' E 010°18'0 0.0
2016-Jul-18 10:33N 43°34' E 010°18'0 0.0
2016-Jul-18 09:33N 43°34' E 010°18'1 0.8
2016-Jul-18 08:34N 43°33' E 010°18'1 0.8
2016-Jul-18 07:33N 43°34' E 010°18'1 0.5
2016-Jul-18 04:33N 43°35' E 010°19'2 2.0
2016-Jul-18 03:33N 43°33' E 010°18'1 0.6
2016-Jul-18 02:33N 43°34' E 010°18'0 0.0
2016-Jul-18 01:34N 43°34' E 010°18'0 0.0
2016-Jul-18 00:33N 43°34' E 010°18'0 0.0
2016-Jul-17 23:33N 43°34' E 010°18'0 0.0
2016-Jul-17 22:33N 43°34' E 010°18'0 0.0
2016-Jul-17 21:33N 43°34' E 010°18'0 0.0
2016-Jul-17 20:34N 43°34' E 010°18'0 0.0
2016-Jul-17 19:33N 43°34' E 010°18'0 0.0
2016-Jul-17 18:34N 43°34' E 010°18'0 0.4
2016-Jul-17 17:33N 43°33' E 010°18'0 0.4
2016-Jul-17 16:33N 43°34' E 010°18'0 0.0
2016-Jul-17 15:33N 43°34' E 010°18'0 0.1
2016-Jul-17 14:33N 43°34' E 010°18'0 0.1
2016-Jul-17 13:33N 43°34' E 010°18'0 0.1
2016-Jul-17 12:33N 43°34' E 010°18'1 1.0
2016-Jul-17 11:34N 43°35' E 010°18'1 1.0
2016-Jul-17 10:33N 43°34' E 010°18'0 0.3
2016-Jul-17 09:34N 43°34' E 010°18'0 0.0
2016-Jul-17 08:34N 43°34' E 010°18'0 0.3
2016-Jul-17 07:34N 43°34' E 010°18'1 1.4
2016-Jul-17 06:33N 43°32' E 010°17'1 0.7
2016-Jul-17 04:33N 43°34' E 010°18'0 0.0
2016-Jul-17 03:32N 43°34' E 010°18'0 0.0
2016-Jul-16 15:34N 43°34' E 010°18'  
Track history (hours):
 
Tides and Currents Weather Stations Pressure Air Temp Water Temp Dewpoint Dewpoint Depression Visibility Wind Speed Wind Dir Waves Ship Positions

Porto Di Livorno

Last reported at 2016-Jul-26 15:33 UTC. Time now 2016-Jul-27 01:16 UTC.
Position N 43°34' E 010°18'.

Length 24 m; draft 6.1 m.

Type: Tug. MMSI: 247194299.

Date/timePositionNaut miles runAvg speedWind from/ knotsBaromVisibWave heightAir tempDewpointWater temp
2016-Jul-26 15:33N 43°34' E 010°18'0 0.0
2016-Jul-26 14:33N 43°34' E 010°18'0 0.0
2016-Jul-26 13:34N 43°34' E 010°18'1 0.7
2016-Jul-26 12:33N 43°34' E 010°18'1 0.7
2016-Jul-26 11:33N 43°34' E 010°18'1 0.5
2016-Jul-26 10:34N 43°34' E 010°18'0 0.4
2016-Jul-26 09:33N 43°34' E 010°18'0 0.0
2016-Jul-26 08:33N 43°34' E 010°18'0 0.0
2016-Jul-26 07:33N 43°34' E 010°18'0 0.0
2016-Jul-26 06:33N 43°34' E 010°18'0 0.4
2016-Jul-26 05:33N 43°33' E 010°18'0 0.4
2016-Jul-26 04:33N 43°33' E 010°18'1 0.7
2016-Jul-26 03:33N 43°34' E 010°18'0 0.2
2016-Jul-26 02:33N 43°34' E 010°18'0 0.0
2016-Jul-26 01:33N 43°34' E 010°18'0 0.0
2016-Jul-26 00:33N 43°34' E 010°18'0 0.0
2016-Jul-25 23:33N 43°34' E 010°18'0 0.0
2016-Jul-25 22:33N 43°34' E 010°18'0 0.0
2016-Jul-25 21:33N 43°34' E 010°18'1 1.0
2016-Jul-25 20:33N 43°33' E 010°17'0 0.3
2016-Jul-25 19:33N 43°33' E 010°18'2 1.6
2016-Jul-25 18:33N 43°34' E 010°18'2 1.8
2016-Jul-25 17:33N 43°32' E 010°17'1 1.4
2016-Jul-25 16:33N 43°34' E 010°18'0 0.0
2016-Jul-25 06:32N 43°34' E 010°18'0 0.0
2016-Jul-24 15:33N 43°34' E 010°18'0 0.0
2016-Jul-24 14:33N 43°34' E 010°18'0 0.4
2016-Jul-24 13:33N 43°34' E 010°18'0 0.4
2016-Jul-24 12:33N 43°34' E 010°18'0 0.0
2016-Jul-24 11:33N 43°34' E 010°18'0 0.2
2016-Jul-24 10:33N 43°34' E 010°18'1 0.9
2016-Jul-24 09:34N 43°35' E 010°18'2 2.5
2016-Jul-24 08:33N 43°32' E 010°17'2 1.7
2016-Jul-24 07:33N 43°34' E 010°18'0 0.2
2016-Jul-24 06:34N 43°34' E 010°18'1 1.1
2016-Jul-24 05:33N 43°35' E 010°19'1 1.2
2016-Jul-24 04:33N 43°34' E 010°18'0 0.0
2016-Jul-23 03:33N 43°34' E 010°18'0 0.0
2016-Jul-23 02:33N 43°34' E 010°18'0 0.0
2016-Jul-23 01:33N 43°34' E 010°18'0 0.0
2016-Jul-23 00:33N 43°34' E 010°18'0 0.0
2016-Jul-22 17:33N 43°34' E 010°18'0 0.0
2016-Jul-22 16:34N 43°34' E 010°18'0 0.0
2016-Jul-22 15:33N 43°34' E 010°18'0 0.0
2016-Jul-22 14:33N 43°34' E 010°18'1 1.2
2016-Jul-22 13:33N 43°35' E 010°19'2 2.2
2016-Jul-22 12:33N 43°33' E 010°17'1 0.8
2016-Jul-22 11:33N 43°34' E 010°18'1 1.2
2016-Jul-22 10:33N 43°35' E 010°18'1 1.0
2016-Jul-22 09:33N 43°34' E 010°18'0 0.0
2016-Jul-22 08:33N 43°34' E 010°18'0 0.0
2016-Jul-22 07:33N 43°34' E 010°18'0 0.0
2016-Jul-22 05:33N 43°34' E 010°18'0 0.0
2016-Jul-22 04:33N 43°34' E 010°18'0 0.0
2016-Jul-22 03:33N 43°34' E 010°18'0 0.0
2016-Jul-22 02:33N 43°34' E 010°18'0 0.0
2016-Jul-22 01:33N 43°34' E 010°18'0 0.0
2016-Jul-22 00:33N 43°34' E 010°18'0 0.0
2016-Jul-21 23:33N 43°34' E 010°18'0 0.0
2016-Jul-21 22:33N 43°34' E 010°18'0 0.0
2016-Jul-21 21:33N 43°34' E 010°18'1 0.9
2016-Jul-21 20:33N 43°35' E 010°18'2 2.4
2016-Jul-21 19:33N 43°32' E 010°17'1 1.4
2016-Jul-21 18:33N 43°34' E 010°18'0 0.0
2016-Jul-21 17:33N 43°34' E 010°18'1 1.4
2016-Jul-21 16:33N 43°35' E 010°19'1 1.4
2016-Jul-21 15:33N 43°34' E 010°18'0 0.0
2016-Jul-21 14:33N 43°34' E 010°18'0 0.0
2016-Jul-21 13:33N 43°34' E 010°18'0 0.0
2016-Jul-21 12:33N 43°34' E 010°18'0 0.0
2016-Jul-21 11:33N 43°34' E 010°18'1 1.3
2016-Jul-21 10:33N 43°35' E 010°19'1 1.3
2016-Jul-21 09:33N 43°34' E 010°18'0 0.0
2016-Jul-21 08:33N 43°34' E 010°18'1 1.4
2016-Jul-21 07:33N 43°32' E 010°17'1 1.4
2016-Jul-21 06:33N 43°34' E 010°18'1 1.3
2016-Jul-21 05:33N 43°35' E 010°19'1 1.3
2016-Jul-21 04:33N 43°34' E 010°18'0 0.0
2016-Jul-21 03:33N 43°34' E 010°18'0 0.0
2016-Jul-21 02:33N 43°34' E 010°18'0 0.0
2016-Jul-21 01:34N 43°34' E 010°18'0 0.0
2016-Jul-21 00:33N 43°34' E 010°18'0 0.0
2016-Jul-20 23:33N 43°34' E 010°18'0 0.2
2016-Jul-20 22:33N 43°34' E 010°18'2 1.6
2016-Jul-20 21:33N 43°32' E 010°17'2 2.0
2016-Jul-20 20:33N 43°34' E 010°18'1 0.6
2016-Jul-20 19:33N 43°34' E 010°18'0 0.4
2016-Jul-20 18:33N 43°34' E 010°18'0 0.5
2016-Jul-20 17:33N 43°34' E 010°18'0 0.3
2016-Jul-20 16:33N 43°34' E 010°19'2 1.9
2016-Jul-20 15:33N 43°33' E 010°17'1 1.2
2016-Jul-20 14:33N 43°34' E 010°18'0 0.0
2016-Jul-20 13:33N 43°34' E 010°18'0 0.0
2016-Jul-20 12:33N 43°34' E 010°18'0 0.0
2016-Jul-20 11:33N 43°34' E 010°18'0 0.0
2016-Jul-20 10:33N 43°34' E 010°18'0 0.0
2016-Jul-20 09:34N 43°34' E 010°18'1 1.3
2016-Jul-20 08:33N 43°35' E 010°19'1 1.3
2016-Jul-20 07:33N 43°34' E 010°18'1 1.1
2016-Jul-20 06:34N 43°35' E 010°18'1 1.0
2016-Jul-20 05:33N 43°34' E 010°18'1 1.2
2016-Jul-20 04:33N 43°35' E 010°19'1 0.1
2016-Jul-19 06:24N 43°34' E 010°18'0 0.0
2016-Jul-19 04:25N 43°34' E 010°18'0 0.2
2016-Jul-19 03:33N 43°34' E 010°18'0 0.1
2016-Jul-19 02:33N 43°34' E 010°18'0 0.0
2016-Jul-19 01:33N 43°34' E 010°18'0 0.0
2016-Jul-19 00:33N 43°34' E 010°18'0 0.0
2016-Jul-18 23:33N 43°34' E 010°18'0 0.0
2016-Jul-18 22:33N 43°34' E 010°18'0 0.0
2016-Jul-18 21:33N 43°34' E 010°18'0 0.0
2016-Jul-18 20:33N 43°34' E 010°18'0 0.0
2016-Jul-18 19:33N 43°34' E 010°18'0 0.0
2016-Jul-18 18:33N 43°34' E 010°18'1 0.6
2016-Jul-18 17:33N 43°34' E 010°18'1 1.2
2016-Jul-18 16:33N 43°33' E 010°18'1 0.2
2016-Jul-18 13:33N 43°34' E 010°18'1 0.8
2016-Jul-18 12:33N 43°33' E 010°18'1 0.8
2016-Jul-18 11:33N 43°34' E 010°18'0 0.0
2016-Jul-18 10:33N 43°34' E 010°18'0 0.0
2016-Jul-18 09:33N 43°34' E 010°18'1 0.8
2016-Jul-18 08:34N 43°33' E 010°18'1 0.8
2016-Jul-18 07:33N 43°34' E 010°18'1 0.5
2016-Jul-18 04:33N 43°35' E 010°19'2 2.0
2016-Jul-18 03:33N 43°33' E 010°18'1 0.6
2016-Jul-18 02:33N 43°34' E 010°18'0 0.0
2016-Jul-18 01:34N 43°34' E 010°18'0 0.0
2016-Jul-18 00:33N 43°34' E 010°18'0 0.0
2016-Jul-17 23:33N 43°34' E 010°18'0 0.0
2016-Jul-17 22:33N 43°34' E 010°18'0 0.0
2016-Jul-17 21:33N 43°34' E 010°18'0 0.0
2016-Jul-17 20:34N 43°34' E 010°18'0 0.0
2016-Jul-17 19:33N 43°34' E 010°18'0 0.0
2016-Jul-17 18:34N 43°34' E 010°18'0 0.4
2016-Jul-17 17:33N 43°33' E 010°18'0 0.4
2016-Jul-17 16:33N 43°34' E 010°18'0 0.0
2016-Jul-17 15:33N 43°34' E 010°18'0 0.1
2016-Jul-17 14:33N 43°34' E 010°18'0 0.1
2016-Jul-17 13:33N 43°34' E 010°18'0 0.1
2016-Jul-17 12:33N 43°34' E 010°18'1 1.0
2016-Jul-17 11:34N 43°35' E 010°18'1 1.0
2016-Jul-17 10:33N 43°34' E 010°18'0 0.3
2016-Jul-17 09:34N 43°34' E 010°18'0 0.0
2016-Jul-17 08:34N 43°34' E 010°18'0 0.3
2016-Jul-17 07:34N 43°34' E 010°18'1 1.4
2016-Jul-17 06:33N 43°32' E 010°17'1 0.7
2016-Jul-17 04:33N 43°34' E 010°18'0 0.0
2016-Jul-17 03:32N 43°34' E 010°18'0 0.0
2016-Jul-16 15:34N 43°34' E 010°18'  

Dump ship's entire track history